sensor_id;sensor_type;location;lat;lon;timestamp;temperature;humidity
4520;DHT22;2272;49.226;8.108;2024-03-29T00:02:08;5.30;99.90
4520;DHT22;2272;49.226;8.108;2024-03-29T00:04:34;5.30;99.90
4520;DHT22;2272;49.226;8.108;2024-03-29T00:06:59;5.30;99.90
4520;DHT22;2272;49.226;8.108;2024-03-29T00:09:25;5.30;99.90
4520;DHT22;2272;49.226;8.108;2024-03-29T00:11:53;5.30;99.90
4520;DHT22;2272;49.226;8.108;2024-03-29T00:14:18;5.30;99.90
4520;DHT22;2272;49.226;8.108;2024-03-29T00:16:44;5.30;99.90
4520;DHT22;2272;49.226;8.108;2024-03-29T00:19:10;5.30;99.90
4520;DHT22;2272;49.226;8.108;2024-03-29T00:21:36;5.20;99.90
4520;DHT22;2272;49.226;8.108;2024-03-29T00:24:02;5.20;99.90
4520;DHT22;2272;49.226;8.108;2024-03-29T00:26:28;5.20;99.90
4520;DHT22;2272;49.226;8.108;2024-03-29T00:28:56;5.20;99.90
4520;DHT22;2272;49.226;8.108;2024-03-29T00:31:21;5.20;99.90
4520;DHT22;2272;49.226;8.108;2024-03-29T00:33:47;5.30;99.90
4520;DHT22;2272;49.226;8.108;2024-03-29T00:36:13;5.30;99.90
4520;DHT22;2272;49.226;8.108;2024-03-29T00:38:39;5.40;99.90
4520;DHT22;2272;49.226;8.108;2024-03-29T00:41:05;5.40;99.90
4520;DHT22;2272;49.226;8.108;2024-03-29T00:43:31;5.40;99.90
4520;DHT22;2272;49.226;8.108;2024-03-29T00:45:58;5.40;99.90
4520;DHT22;2272;49.226;8.108;2024-03-29T00:48:24;5.40;99.90
4520;DHT22;2272;49.226;8.108;2024-03-29T00:50:50;5.40;99.90
4520;DHT22;2272;49.226;8.108;2024-03-29T00:53:15;5.50;99.90
4520;DHT22;2272;49.226;8.108;2024-03-29T00:55:41;5.50;99.90
4520;DHT22;2272;49.226;8.108;2024-03-29T00:58:07;5.50;99.90
4520;DHT22;2272;49.226;8.108;2024-03-29T01:00:33;5.50;99.90
4520;DHT22;2272;49.226;8.108;2024-03-29T01:03:00;5.50;99.90
4520;DHT22;2272;49.226;8.108;2024-03-29T01:05:26;5.50;99.90
4520;DHT22;2272;49.226;8.108;2024-03-29T01:07:52;5.40;99.90
4520;DHT22;2272;49.226;8.108;2024-03-29T01:10:18;5.40;99.90
4520;DHT22;2272;49.226;8.108;2024-03-29T01:12:43;5.40;99.90
4520;DHT22;2272;49.226;8.108;2024-03-29T01:15:09;5.50;99.90
4520;DHT22;2272;49.226;8.108;2024-03-29T01:17:35;5.50;99.90
4520;DHT22;2272;49.226;8.108;2024-03-29T01:20:03;5.50;99.90
4520;DHT22;2272;49.226;8.108;2024-03-29T01:22:28;5.50;99.90
4520;DHT22;2272;49.226;8.108;2024-03-29T01:24:54;5.50;99.90
4520;DHT22;2272;49.226;8.108;2024-03-29T01:27:20;5.50;99.90
4520;DHT22;2272;49.226;8.108;2024-03-29T01:29:46;5.40;99.90
4520;DHT22;2272;49.226;8.108;2024-03-29T01:32:12;5.40;99.90
4520;DHT22;2272;49.226;8.108;2024-03-29T01:34:38;5.30;99.90
4520;DHT22;2272;49.226;8.108;2024-03-29T01:37:05;5.30;99.90
4520;DHT22;2272;49.226;8.108;2024-03-29T01:39:31;5.20;99.90
4520;DHT22;2272;49.226;8.108;2024-03-29T01:41:57;5.20;99.90
4520;DHT22;2272;49.226;8.108;2024-03-29T01:44:22;5.30;99.90
4520;DHT22;2272;49.226;8.108;2024-03-29T01:46:49;5.40;99.90
4520;DHT22;2272;49.226;8.108;2024-03-29T01:49:16;5.50;99.90
4520;DHT22;2272;49.226;8.108;2024-03-29T01:51:44;5.50;99.90
4520;DHT22;2272;49.226;8.108;2024-03-29T01:54:12;5.60;99.90
4520;DHT22;2272;49.226;8.108;2024-03-29T01:56:40;5.60;99.90
4520;DHT22;2272;49.226;8.108;2024-03-29T01:59:12;5.70;99.90
4520;DHT22;2272;49.226;8.108;2024-03-29T02:01:40;5.70;99.90
4520;DHT22;2272;49.226;8.108;2024-03-29T02:04:07;5.70;99.90
4520;DHT22;2272;49.226;8.108;2024-03-29T02:06:35;5.80;99.90
4520;DHT22;2272;49.226;8.108;2024-03-29T02:09:01;5.80;99.90
4520;DHT22;2272;49.226;8.108;2024-03-29T02:11:34;5.80;99.90
4520;DHT22;2272;49.226;8.108;2024-03-29T02:14:01;5.90;99.90
4520;DHT22;2272;49.226;8.108;2024-03-29T02:16:27;5.90;99.90
4520;DHT22;2272;49.226;8.108;2024-03-29T02:18:54;5.90;99.90
4520;DHT22;2272;49.226;8.108;2024-03-29T02:21:21;6.00;99.90
4520;DHT22;2272;49.226;8.108;2024-03-29T02:23:56;6.00;99.90
4520;DHT22;2272;49.226;8.108;2024-03-29T02:26:23;6.00;99.90
4520;DHT22;2272;49.226;8.108;2024-03-29T02:28:52;6.10;99.90
4520;DHT22;2272;49.226;8.108;2024-03-29T02:31:19;6.10;99.90
4520;DHT22;2272;49.226;8.108;2024-03-29T02:33:46;6.10;99.90
4520;DHT22;2272;49.226;8.108;2024-03-29T02:36:13;6.10;99.90
4520;DHT22;2272;49.226;8.108;2024-03-29T02:38:39;6.20;99.90
4520;DHT22;2272;49.226;8.108;2024-03-29T02:41:07;6.20;99.90
4520;DHT22;2272;49.226;8.108;2024-03-29T02:43:33;6.30;99.90
4520;DHT22;2272;49.226;8.108;2024-03-29T02:46:00;6.30;99.90
4520;DHT22;2272;49.226;8.108;2024-03-29T02:48:26;6.40;99.90
4520;DHT22;2272;49.226;8.108;2024-03-29T02:50:52;6.40;99.90
4520;DHT22;2272;49.226;8.108;2024-03-29T02:53:19;6.50;99.90
4520;DHT22;2272;49.226;8.108;2024-03-29T02:55:45;6.50;99.90
4520;DHT22;2272;49.226;8.108;2024-03-29T02:58:12;6.50;99.90
4520;DHT22;2272;49.226;8.108;2024-03-29T03:00:39;6.40;99.90
4520;DHT22;2272;49.226;8.108;2024-03-29T03:03:05;6.40;99.90
4520;DHT22;2272;49.226;8.108;2024-03-29T03:05:31;6.40;99.90
4520;DHT22;2272;49.226;8.108;2024-03-29T03:07:58;6.40;99.90
4520;DHT22;2272;49.226;8.108;2024-03-29T03:10:45;6.50;99.90
4520;DHT22;2272;49.226;8.108;2024-03-29T03:13:28;6.60;99.90
4520;DHT22;2272;49.226;8.108;2024-03-29T03:15:55;6.60;99.90
4520;DHT22;2272;49.226;8.108;2024-03-29T03:18:27;6.70;99.90
4520;DHT22;2272;49.226;8.108;2024-03-29T03:20:54;6.60;99.90
4520;DHT22;2272;49.226;8.108;2024-03-29T03:23:23;6.60;99.90
4520;DHT22;2272;49.226;8.108;2024-03-29T03:25:54;6.40;99.90
4520;DHT22;2272;49.226;8.108;2024-03-29T03:28:20;6.40;99.90
4520;DHT22;2272;49.226;8.108;2024-03-29T03:30:48;6.30;99.90
4520;DHT22;2272;49.226;8.108;2024-03-29T03:33:14;6.20;99.90
4520;DHT22;2272;49.226;8.108;2024-03-29T03:35:41;6.10;99.90
4520;DHT22;2272;49.226;8.108;2024-03-29T03:38:07;6.00;99.90
4520;DHT22;2272;49.226;8.108;2024-03-29T03:40:34;5.90;99.90
4520;DHT22;2272;49.226;8.108;2024-03-29T03:43:00;5.90;99.90
4520;DHT22;2272;49.226;8.108;2024-03-29T03:45:26;5.80;99.90
4520;DHT22;2272;49.226;8.108;2024-03-29T03:47:54;5.70;99.90
4520;DHT22;2272;49.226;8.108;2024-03-29T03:50:20;5.60;99.90
4520;DHT22;2272;49.226;8.108;2024-03-29T03:52:47;5.60;99.90
4520;DHT22;2272;49.226;8.108;2024-03-29T03:55:12;5.50;99.90
4520;DHT22;2272;49.226;8.108;2024-03-29T03:57:39;5.50;99.90
4520;DHT22;2272;49.226;8.108;2024-03-29T04:00:06;5.50;99.90
4520;DHT22;2272;49.226;8.108;2024-03-29T04:02:33;5.50;99.90
4520;DHT22;2272;49.226;8.108;2024-03-29T04:05:00;5.50;99.90
4520;DHT22;2272;49.226;8.108;2024-03-29T04:07:26;5.50;99.90
4520;DHT22;2272;49.226;8.108;2024-03-29T04:09:52;5.50;99.90
4520;DHT22;2272;49.226;8.108;2024-03-29T04:12:19;5.50;99.90
4520;DHT22;2272;49.226;8.108;2024-03-29T04:14:45;5.60;99.90
4520;DHT22;2272;49.226;8.108;2024-03-29T04:17:12;5.60;99.90
4520;DHT22;2272;49.226;8.108;2024-03-29T04:19:38;5.60;99.90
4520;DHT22;2272;49.226;8.108;2024-03-29T04:22:06;5.70;99.90
4520;DHT22;2272;49.226;8.108;2024-03-29T04:24:31;5.70;99.90
4520;DHT22;2272;49.226;8.108;2024-03-29T04:26:58;5.70;99.90
4520;DHT22;2272;49.226;8.108;2024-03-29T04:29:24;5.80;99.90
4520;DHT22;2272;49.226;8.108;2024-03-29T04:31:51;5.80;99.90
4520;DHT22;2272;49.226;8.108;2024-03-29T04:34:17;5.80;99.90
4520;DHT22;2272;49.226;8.108;2024-03-29T04:36:43;5.80;99.90
4520;DHT22;2272;49.226;8.108;2024-03-29T04:39:11;5.90;99.90
4520;DHT22;2272;49.226;8.108;2024-03-29T04:41:38;5.90;99.90
4520;DHT22;2272;49.226;8.108;2024-03-29T04:44:05;5.90;99.90
4520;DHT22;2272;49.226;8.108;2024-03-29T04:46:33;6.00;99.90
4520;DHT22;2272;49.226;8.108;2024-03-29T04:48:59;6.00;99.90
4520;DHT22;2272;49.226;8.108;2024-03-29T04:51:27;6.00;99.90
4520;DHT22;2272;49.226;8.108;2024-03-29T04:53:53;6.00;99.90
4520;DHT22;2272;49.226;8.108;2024-03-29T04:56:21;6.10;99.90
4520;DHT22;2272;49.226;8.108;2024-03-29T04:58:48;6.10;99.90
4520;DHT22;2272;49.226;8.108;2024-03-29T05:01:14;6.10;99.90
4520;DHT22;2272;49.226;8.108;2024-03-29T05:03:41;6.10;99.90
4520;DHT22;2272;49.226;8.108;2024-03-29T05:06:08;6.10;99.90
4520;DHT22;2272;49.226;8.108;2024-03-29T05:08:34;6.00;99.90
4520;DHT22;2272;49.226;8.108;2024-03-29T05:11:01;6.00;99.90
4520;DHT22;2272;49.226;8.108;2024-03-29T05:13:29;6.00;99.90
4520;DHT22;2272;49.226;8.108;2024-03-29T05:15:57;5.90;99.90
4520;DHT22;2272;49.226;8.108;2024-03-29T05:18:24;5.80;99.90
4520;DHT22;2272;49.226;8.108;2024-03-29T05:20:50;5.70;99.90
4520;DHT22;2272;49.226;8.108;2024-03-29T05:23:17;5.70;99.90
4520;DHT22;2272;49.226;8.108;2024-03-29T05:25:44;5.60;99.90
4520;DHT22;2272;49.226;8.108;2024-03-29T05:28:10;5.60;99.90
4520;DHT22;2272;49.226;8.108;2024-03-29T05:30:38;5.60;99.90
4520;DHT22;2272;49.226;8.108;2024-03-29T05:33:05;5.70;99.90
4520;DHT22;2272;49.226;8.108;2024-03-29T05:35:33;5.70;99.90
4520;DHT22;2272;49.226;8.108;2024-03-29T05:38:01;5.70;99.90
4520;DHT22;2272;49.226;8.108;2024-03-29T05:40:28;5.80;99.90
4520;DHT22;2272;49.226;8.108;2024-03-29T05:42:55;5.80;99.90
4520;DHT22;2272;49.226;8.108;2024-03-29T05:45:26;5.90;99.90
4520;DHT22;2272;49.226;8.108;2024-03-29T05:47:58;6.00;99.90
4520;DHT22;2272;49.226;8.108;2024-03-29T05:50:25;6.10;99.90
4520;DHT22;2272;49.226;8.108;2024-03-29T05:52:52;6.10;99.90
4520;DHT22;2272;49.226;8.108;2024-03-29T05:55:19;6.20;99.90
4520;DHT22;2272;49.226;8.108;2024-03-29T05:57:46;6.30;99.90
4520;DHT22;2272;49.226;8.108;2024-03-29T06:00:14;6.40;99.90
4520;DHT22;2272;49.226;8.108;2024-03-29T06:02:43;6.40;99.90
4520;DHT22;2272;49.226;8.108;2024-03-29T06:05:12;6.50;99.90
4520;DHT22;2272;49.226;8.108;2024-03-29T06:07:39;6.60;99.90
4520;DHT22;2272;49.226;8.108;2024-03-29T06:10:06;6.60;99.90
4520;DHT22;2272;49.226;8.108;2024-03-29T06:12:35;6.60;99.90
4520;DHT22;2272;49.226;8.108;2024-03-29T06:15:04;6.60;99.90
4520;DHT22;2272;49.226;8.108;2024-03-29T06:17:48;6.60;99.90
4520;DHT22;2272;49.226;8.108;2024-03-29T06:20:17;6.70;99.90
4520;DHT22;2272;49.226;8.108;2024-03-29T06:22:46;6.70;99.90
4520;DHT22;2272;49.226;8.108;2024-03-29T06:25:13;6.70;99.90
4520;DHT22;2272;49.226;8.108;2024-03-29T06:27:40;6.80;99.90
4520;DHT22;2272;49.226;8.108;2024-03-29T06:30:09;6.80;99.90
4520;DHT22;2272;49.226;8.108;2024-03-29T06:32:36;6.80;99.90
4520;DHT22;2272;49.226;8.108;2024-03-29T06:35:03;6.80;99.90
4520;DHT22;2272;49.226;8.108;2024-03-29T06:37:32;6.90;99.90
4520;DHT22;2272;49.226;8.108;2024-03-29T06:39:59;6.90;99.90
4520;DHT22;2272;49.226;8.108;2024-03-29T06:42:25;7.00;99.90
4520;DHT22;2272;49.226;8.108;2024-03-29T06:44:52;7.10;99.90
4520;DHT22;2272;49.226;8.108;2024-03-29T06:47:20;7.20;99.90
4520;DHT22;2272;49.226;8.108;2024-03-29T06:49:47;7.30;99.90
4520;DHT22;2272;49.226;8.108;2024-03-29T06:52:14;7.40;99.90
4520;DHT22;2272;49.226;8.108;2024-03-29T06:54:42;7.50;99.90
4520;DHT22;2272;49.226;8.108;2024-03-29T06:57:09;7.60;99.90
4520;DHT22;2272;49.226;8.108;2024-03-29T06:59:40;7.70;99.90
4520;DHT22;2272;49.226;8.108;2024-03-29T07:02:07;7.80;99.90
4520;DHT22;2272;49.226;8.108;2024-03-29T07:04:35;7.90;99.90
4520;DHT22;2272;49.226;8.108;2024-03-29T07:07:02;7.90;99.90
4520;DHT22;2272;49.226;8.108;2024-03-29T07:09:29;8.00;99.90
4520;DHT22;2272;49.226;8.108;2024-03-29T07:11:57;8.00;99.90
4520;DHT22;2272;49.226;8.108;2024-03-29T07:14:24;8.00;99.90
4520;DHT22;2272;49.226;8.108;2024-03-29T07:16:53;8.00;99.90
4520;DHT22;2272;49.226;8.108;2024-03-29T07:19:20;8.00;99.90
4520;DHT22;2272;49.226;8.108;2024-03-29T07:21:47;8.00;99.90
4520;DHT22;2272;49.226;8.108;2024-03-29T07:24:16;7.90;99.90
4520;DHT22;2272;49.226;8.108;2024-03-29T07:26:43;7.80;99.90
4520;DHT22;2272;49.226;8.108;2024-03-29T07:29:11;7.80;99.90
4520;DHT22;2272;49.226;8.108;2024-03-29T07:31:38;7.70;99.90
4520;DHT22;2272;49.226;8.108;2024-03-29T07:34:05;7.80;99.90
4520;DHT22;2272;49.226;8.108;2024-03-29T07:36:31;7.90;99.90
4520;DHT22;2272;49.226;8.108;2024-03-29T07:39:01;7.90;99.90
4520;DHT22;2272;49.226;8.108;2024-03-29T07:41:29;8.00;99.90
4520;DHT22;2272;49.226;8.108;2024-03-29T07:43:56;8.10;99.90
4520;DHT22;2272;49.226;8.108;2024-03-29T07:46:27;8.10;99.90
4520;DHT22;2272;49.226;8.108;2024-03-29T07:48:54;8.10;99.90
4520;DHT22;2272;49.226;8.108;2024-03-29T07:51:21;8.10;99.90
4520;DHT22;2272;49.226;8.108;2024-03-29T07:53:48;8.10;99.90
4520;DHT22;2272;49.226;8.108;2024-03-29T07:56:15;8.20;99.90
4520;DHT22;2272;49.226;8.108;2024-03-29T07:58:42;8.20;99.90
4520;DHT22;2272;49.226;8.108;2024-03-29T08:01:09;8.30;99.90
4520;DHT22;2272;49.226;8.108;2024-03-29T08:03:37;8.40;99.90
4520;DHT22;2272;49.226;8.108;2024-03-29T08:06:04;8.40;99.90
4520;DHT22;2272;49.226;8.108;2024-03-29T08:08:31;8.50;99.90
4520;DHT22;2272;49.226;8.108;2024-03-29T08:10:58;8.50;99.90
4520;DHT22;2272;49.226;8.108;2024-03-29T08:13:25;8.50;99.90
4520;DHT22;2272;49.226;8.108;2024-03-29T08:15:56;8.60;99.90
4520;DHT22;2272;49.226;8.108;2024-03-29T08:18:23;8.60;99.90
4520;DHT22;2272;49.226;8.108;2024-03-29T08:20:51;8.60;99.90
4520;DHT22;2272;49.226;8.108;2024-03-29T08:23:19;8.60;99.90
4520;DHT22;2272;49.226;8.108;2024-03-29T08:25:46;8.60;99.90
4520;DHT22;2272;49.226;8.108;2024-03-29T08:28:13;8.60;99.90
4520;DHT22;2272;49.226;8.108;2024-03-29T08:30:39;8.50;99.90
4520;DHT22;2272;49.226;8.108;2024-03-29T08:33:05;8.50;99.90
4520;DHT22;2272;49.226;8.108;2024-03-29T08:35:33;8.60;99.90
4520;DHT22;2272;49.226;8.108;2024-03-29T08:38:01;8.70;99.90
4520;DHT22;2272;49.226;8.108;2024-03-29T08:40:29;8.80;99.90
4520;DHT22;2272;49.226;8.108;2024-03-29T08:42:57;8.80;99.90
4520;DHT22;2272;49.226;8.108;2024-03-29T08:45:24;8.80;99.90
4520;DHT22;2272;49.226;8.108;2024-03-29T08:47:50;8.70;99.90
4520;DHT22;2272;49.226;8.108;2024-03-29T08:50:18;8.60;99.90
4520;DHT22;2272;49.226;8.108;2024-03-29T08:52:45;8.60;99.90
4520;DHT22;2272;49.226;8.108;2024-03-29T08:55:12;8.60;99.90
4520;DHT22;2272;49.226;8.108;2024-03-29T08:57:39;8.70;99.90
4520;DHT22;2272;49.226;8.108;2024-03-29T09:00:06;8.70;99.90
4520;DHT22;2272;49.226;8.108;2024-03-29T09:02:33;8.80;99.90
4520;DHT22;2272;49.226;8.108;2024-03-29T09:05:00;8.70;99.90
4520;DHT22;2272;49.226;8.108;2024-03-29T09:07:27;8.80;99.90
4520;DHT22;2272;49.226;8.108;2024-03-29T09:09:54;8.90;99.90
4520;DHT22;2272;49.226;8.108;2024-03-29T09:12:22;9.00;99.90
4520;DHT22;2272;49.226;8.108;2024-03-29T09:14:49;9.20;99.90
4520;DHT22;2272;49.226;8.108;2024-03-29T09:17:16;9.50;99.90
4520;DHT22;2272;49.226;8.108;2024-03-29T09:19:43;9.70;99.90
4520;DHT22;2272;49.226;8.108;2024-03-29T09:22:09;9.90;99.90
4520;DHT22;2272;49.226;8.108;2024-03-29T09:24:36;10.00;99.90
4520;DHT22;2272;49.226;8.108;2024-03-29T09:27:04;10.10;99.90
4520;DHT22;2272;49.226;8.108;2024-03-29T09:29:33;10.10;99.90
4520;DHT22;2272;49.226;8.108;2024-03-29T09:31:59;10.10;99.90
4520;DHT22;2272;49.226;8.108;2024-03-29T09:34:27;10.30;99.90
4520;DHT22;2272;49.226;8.108;2024-03-29T09:36:54;10.40;99.90
4520;DHT22;2272;49.226;8.108;2024-03-29T09:39:20;10.70;99.90
4520;DHT22;2272;49.226;8.108;2024-03-29T09:41:47;10.90;99.90
4520;DHT22;2272;49.226;8.108;2024-03-29T09:44:14;11.00;99.90
4520;DHT22;2272;49.226;8.108;2024-03-29T09:46:43;11.10;99.90
4520;DHT22;2272;49.226;8.108;2024-03-29T09:49:09;11.20;99.90
4520;DHT22;2272;49.226;8.108;2024-03-29T09:51:40;11.10;99.90
4520;DHT22;2272;49.226;8.108;2024-03-29T09:54:09;11.00;99.90
4520;DHT22;2272;49.226;8.108;2024-03-29T09:56:38;10.70;99.90
4520;DHT22;2272;49.226;8.108;2024-03-29T09:59:06;10.50;99.90
4520;DHT22;2272;49.226;8.108;2024-03-29T10:01:34;10.20;99.90
4520;DHT22;2272;49.226;8.108;2024-03-29T10:04:03;9.90;99.90
4520;DHT22;2272;49.226;8.108;2024-03-29T10:06:34;9.90;99.90
4520;DHT22;2272;49.226;8.108;2024-03-29T10:09:00;10.00;99.90
4520;DHT22;2272;49.226;8.108;2024-03-29T10:11:27;10.30;99.90
4520;DHT22;2272;49.226;8.108;2024-03-29T10:13:54;10.60;99.90
4520;DHT22;2272;49.226;8.108;2024-03-29T10:16:21;11.00;99.90
4520;DHT22;2272;49.226;8.108;2024-03-29T10:18:50;11.50;99.90
4520;DHT22;2272;49.226;8.108;2024-03-29T10:21:24;11.70;99.90
4520;DHT22;2272;49.226;8.108;2024-03-29T10:23:51;11.90;99.90
4520;DHT22;2272;49.226;8.108;2024-03-29T10:26:18;12.00;99.90
4520;DHT22;2272;49.226;8.108;2024-03-29T10:28:47;12.10;99.90
4520;DHT22;2272;49.226;8.108;2024-03-29T10:31:14;12.40;99.90
4520;DHT22;2272;49.226;8.108;2024-03-29T10:33:42;12.80;99.90
4520;DHT22;2272;49.226;8.108;2024-03-29T10:38:39;13.50;99.90
4520;DHT22;2272;49.226;8.108;2024-03-29T10:41:07;13.80;99.90
4520;DHT22;2272;49.226;8.108;2024-03-29T10:43:34;13.90;99.90
4520;DHT22;2272;49.226;8.108;2024-03-29T10:46:01;13.90;99.90
4520;DHT22;2272;49.226;8.108;2024-03-29T10:48:30;13.90;99.90
4520;DHT22;2272;49.226;8.108;2024-03-29T10:50:58;13.80;99.90
4520;DHT22;2272;49.226;8.108;2024-03-29T10:53:27;13.70;99.90
4520;DHT22;2272;49.226;8.108;2024-03-29T10:55:58;13.60;99.90
4520;DHT22;2272;49.226;8.108;2024-03-29T10:58:30;13.50;99.90
4520;DHT22;2272;49.226;8.108;2024-03-29T11:00:57;13.50;99.90
4520;DHT22;2272;49.226;8.108;2024-03-29T11:03:32;13.30;99.90
4520;DHT22;2272;49.226;8.108;2024-03-29T11:06:04;13.20;99.90
4520;DHT22;2272;49.226;8.108;2024-03-29T11:08:32;13.10;99.90
4520;DHT22;2272;49.226;8.108;2024-03-29T11:11:02;13.00;99.90
4520;DHT22;2272;49.226;8.108;2024-03-29T11:13:34;12.90;99.90
4520;DHT22;2272;49.226;8.108;2024-03-29T11:16:04;12.90;99.90
4520;DHT22;2272;49.226;8.108;2024-03-29T11:18:31;12.90;99.90
4520;DHT22;2272;49.226;8.108;2024-03-29T11:20:58;13.00;99.90
4520;DHT22;2272;49.226;8.108;2024-03-29T11:23:28;13.20;99.90
4520;DHT22;2272;49.226;8.108;2024-03-29T11:25:55;13.30;99.90
4520;DHT22;2272;49.226;8.108;2024-03-29T11:28:25;13.50;99.90
4520;DHT22;2272;49.226;8.108;2024-03-29T11:30:59;13.60;99.90
4520;DHT22;2272;49.226;8.108;2024-03-29T11:33:30;13.60;99.90
4520;DHT22;2272;49.226;8.108;2024-03-29T11:35:56;13.50;99.90
4520;DHT22;2272;49.226;8.108;2024-03-29T11:38:30;13.40;99.90
4520;DHT22;2272;49.226;8.108;2024-03-29T11:41:04;13.20;99.90
4520;DHT22;2272;49.226;8.108;2024-03-29T11:43:33;13.00;99.90
4520;DHT22;2272;49.226;8.108;2024-03-29T11:46:01;12.80;99.90
4520;DHT22;2272;49.226;8.108;2024-03-29T11:48:29;12.80;99.90
4520;DHT22;2272;49.226;8.108;2024-03-29T11:50:57;12.80;99.90
4520;DHT22;2272;49.226;8.108;2024-03-29T11:53:23;12.60;99.90
4520;DHT22;2272;49.226;8.108;2024-03-29T11:55:50;12.50;99.90
4520;DHT22;2272;49.226;8.108;2024-03-29T11:58:20;12.30;99.90
4520;DHT22;2272;49.226;8.108;2024-03-29T12:00:49;12.10;99.90
4520;DHT22;2272;49.226;8.108;2024-03-29T12:03:16;12.10;99.90
4520;DHT22;2272;49.226;8.108;2024-03-29T12:05:43;12.00;99.90
4520;DHT22;2272;49.226;8.108;2024-03-29T12:08:10;11.80;99.90
4520;DHT22;2272;49.226;8.108;2024-03-29T12:10:37;11.70;99.90
4520;DHT22;2272;49.226;8.108;2024-03-29T12:13:06;11.70;99.90
4520;DHT22;2272;49.226;8.108;2024-03-29T12:15:33;11.70;99.90
4520;DHT22;2272;49.226;8.108;2024-03-29T12:18:02;11.80;99.90
4520;DHT22;2272;49.226;8.108;2024-03-29T12:20:31;11.90;99.90
4520;DHT22;2272;49.226;8.108;2024-03-29T12:22:59;12.00;99.90
4520;DHT22;2272;49.226;8.108;2024-03-29T12:25:26;12.00;99.90
4520;DHT22;2272;49.226;8.108;2024-03-29T12:27:53;12.10;99.90
4520;DHT22;2272;49.226;8.108;2024-03-29T12:30:20;12.20;99.90
4520;DHT22;2272;49.226;8.108;2024-03-29T12:32:47;12.20;99.90
4520;DHT22;2272;49.226;8.108;2024-03-29T12:35:16;12.20;99.90
4520;DHT22;2272;49.226;8.108;2024-03-29T12:37:50;12.30;99.90
4520;DHT22;2272;49.226;8.108;2024-03-29T12:40:17;12.30;99.90
4520;DHT22;2272;49.226;8.108;2024-03-29T12:42:48;12.30;99.90
4520;DHT22;2272;49.226;8.108;2024-03-29T12:45:14;12.20;99.90
4520;DHT22;2272;49.226;8.108;2024-03-29T12:47:42;12.10;99.90
4520;DHT22;2272;49.226;8.108;2024-03-29T12:50:09;12.20;99.90
4520;DHT22;2272;49.226;8.108;2024-03-29T12:52:41;12.10;99.90
4520;DHT22;2272;49.226;8.108;2024-03-29T12:55:08;12.00;99.90
4520;DHT22;2272;49.226;8.108;2024-03-29T12:57:35;11.90;99.90
4520;DHT22;2272;49.226;8.108;2024-03-29T13:00:06;11.80;99.90
4520;DHT22;2272;49.226;8.108;2024-03-29T13:02:34;11.80;99.90
4520;DHT22;2272;49.226;8.108;2024-03-29T13:05:01;11.70;99.90
4520;DHT22;2272;49.226;8.108;2024-03-29T13:07:28;11.70;99.90
4520;DHT22;2272;49.226;8.108;2024-03-29T13:09:56;11.80;99.90
4520;DHT22;2272;49.226;8.108;2024-03-29T13:12:24;11.70;99.90
4520;DHT22;2272;49.226;8.108;2024-03-29T13:14:51;11.70;99.90
4520;DHT22;2272;49.226;8.108;2024-03-29T13:17:18;11.60;99.90
4520;DHT22;2272;49.226;8.108;2024-03-29T13:19:45;11.50;99.90
4520;DHT22;2272;49.226;8.108;2024-03-29T13:22:11;11.40;99.90
4520;DHT22;2272;49.226;8.108;2024-03-29T13:24:38;11.40;99.90
4520;DHT22;2272;49.226;8.108;2024-03-29T13:27:06;11.30;99.90
4520;DHT22;2272;49.226;8.108;2024-03-29T13:29:33;11.30;99.90
4520;DHT22;2272;49.226;8.108;2024-03-29T13:31:59;11.30;99.90
4520;DHT22;2272;49.226;8.108;2024-03-29T13:34:26;11.30;99.90
4520;DHT22;2272;49.226;8.108;2024-03-29T13:36:53;11.30;99.90
4520;DHT22;2272;49.226;8.108;2024-03-29T13:39:20;11.40;99.90
4520;DHT22;2272;49.226;8.108;2024-03-29T13:41:48;11.40;99.90
4520;DHT22;2272;49.226;8.108;2024-03-29T13:44:16;11.40;99.90
4520;DHT22;2272;49.226;8.108;2024-03-29T13:46:43;11.60;99.90
4520;DHT22;2272;49.226;8.108;2024-03-29T13:49:10;11.80;99.90
4520;DHT22;2272;49.226;8.108;2024-03-29T13:51:37;12.00;99.90
4520;DHT22;2272;49.226;8.108;2024-03-29T13:54:04;12.10;99.90
4520;DHT22;2272;49.226;8.108;2024-03-29T13:56:31;12.00;99.90
4520;DHT22;2272;49.226;8.108;2024-03-29T13:58:57;12.00;99.90
4520;DHT22;2272;49.226;8.108;2024-03-29T14:01:25;12.10;99.90
4520;DHT22;2272;49.226;8.108;2024-03-29T14:03:52;12.10;99.90
4520;DHT22;2272;49.226;8.108;2024-03-29T14:06:20;12.20;99.90
4520;DHT22;2272;49.226;8.108;2024-03-29T14:08:47;12.30;99.90
4520;DHT22;2272;49.226;8.108;2024-03-29T14:11:13;12.40;99.90
4520;DHT22;2272;49.226;8.108;2024-03-29T14:13:43;12.50;99.90
4520;DHT22;2272;49.226;8.108;2024-03-29T14:16:13;12.70;99.90
4520;DHT22;2272;49.226;8.108;2024-03-29T14:18:41;12.90;99.90
4520;DHT22;2272;49.226;8.108;2024-03-29T14:21:07;13.00;99.90
4520;DHT22;2272;49.226;8.108;2024-03-29T14:23:34;13.20;99.90
4520;DHT22;2272;49.226;8.108;2024-03-29T14:28:28;13.40;99.90
4520;DHT22;2272;49.226;8.108;2024-03-29T14:30:54;13.40;99.90
4520;DHT22;2272;49.226;8.108;2024-03-29T14:33:21;13.30;99.90
4520;DHT22;2272;49.226;8.108;2024-03-29T14:38:16;13.20;99.90
4520;DHT22;2272;49.226;8.108;2024-03-29T14:40:43;13.00;99.90
4520;DHT22;2272;49.226;8.108;2024-03-29T14:43:10;12.90;99.90
4520;DHT22;2272;49.226;8.108;2024-03-29T14:45:40;12.90;99.90
4520;DHT22;2272;49.226;8.108;2024-03-29T14:48:09;12.90;99.90
4520;DHT22;2272;49.226;8.108;2024-03-29T14:50:35;12.90;99.90
4520;DHT22;2272;49.226;8.108;2024-03-29T14:53:04;12.90;99.90
4520;DHT22;2272;49.226;8.108;2024-03-29T14:57:57;13.10;99.90
4520;DHT22;2272;49.226;8.108;2024-03-29T15:00:24;13.10;99.90
4520;DHT22;2272;49.226;8.108;2024-03-29T15:02:51;13.20;99.90
4520;DHT22;2272;49.226;8.108;2024-03-29T15:05:18;13.20;99.90
4520;DHT22;2272;49.226;8.108;2024-03-29T15:07:44;13.10;99.90
4520;DHT22;2272;49.226;8.108;2024-03-29T15:10:13;13.00;99.90
4520;DHT22;2272;49.226;8.108;2024-03-29T15:12:41;13.00;99.90
4520;DHT22;2272;49.226;8.108;2024-03-29T15:15:08;13.30;99.90
4520;DHT22;2272;49.226;8.108;2024-03-29T15:17:35;13.70;99.90
4520;DHT22;2272;49.226;8.108;2024-03-29T15:20:02;13.90;99.90
4520;DHT22;2272;49.226;8.108;2024-03-29T15:22:30;14.00;99.90
4520;DHT22;2272;49.226;8.108;2024-03-29T15:24:58;13.90;99.90
4520;DHT22;2272;49.226;8.108;2024-03-29T15:27:29;13.90;99.90
4520;DHT22;2272;49.226;8.108;2024-03-29T15:30:11;14.00;99.90
4520;DHT22;2272;49.226;8.108;2024-03-29T15:32:38;14.10;99.90
4520;DHT22;2272;49.226;8.108;2024-03-29T15:35:04;14.10;99.90
4520;DHT22;2272;49.226;8.108;2024-03-29T15:37:31;14.00;99.90
4520;DHT22;2272;49.226;8.108;2024-03-29T15:39:58;14.00;99.90
4520;DHT22;2272;49.226;8.108;2024-03-29T15:42:27;13.90;99.90
4520;DHT22;2272;49.226;8.108;2024-03-29T15:44:53;13.90;99.90
4520;DHT22;2272;49.226;8.108;2024-03-29T15:47:21;13.90;99.90
4520;DHT22;2272;49.226;8.108;2024-03-29T15:49:48;14.00;99.90
4520;DHT22;2272;49.226;8.108;2024-03-29T15:52:14;14.20;99.90
4520;DHT22;2272;49.226;8.108;2024-03-29T15:54:41;14.50;99.90
4520;DHT22;2272;49.226;8.108;2024-03-29T15:57:08;14.70;99.90
4520;DHT22;2272;49.226;8.108;2024-03-29T15:59:37;14.80;99.90
4520;DHT22;2272;49.226;8.108;2024-03-29T16:02:06;15.00;99.90
4520;DHT22;2272;49.226;8.108;2024-03-29T16:04:33;15.20;99.90
4520;DHT22;2272;49.226;8.108;2024-03-29T16:07:00;15.20;99.90
4520;DHT22;2272;49.226;8.108;2024-03-29T16:11:54;15.30;99.90
4520;DHT22;2272;49.226;8.108;2024-03-29T16:14:21;14.70;99.90
4520;DHT22;2272;49.226;8.108;2024-03-29T16:16:50;14.60;99.90
4520;DHT22;2272;49.226;8.108;2024-03-29T16:19:17;14.50;99.90
4520;DHT22;2272;49.226;8.108;2024-03-29T16:21:43;14.40;99.90
4520;DHT22;2272;49.226;8.108;2024-03-29T16:24:09;14.30;99.90
4520;DHT22;2272;49.226;8.108;2024-03-29T16:26:35;14.10;99.90